Time;durP1;ratioP1;P1;durP2;ratioP2;P2;SDS_P1;SDS_P2;PMS_P1;PMS_P2;Temp;Humidity;BMP_temperature;BMP_pressure;BME280_temperature;BME280_humidity;BME280_pressure;Samples;Min_cycle;Max_cycle;Signal;HPM_P1;HPM_P2
2021/11/20 00:02:50;;;;;;;25.42;15.13;;;8.80;99.90;;;;;;5031435;28;20040;-70
2021/11/20 00:05:54;;;;;;;26.63;14.43;;;8.80;99.90;;;;;;5011714;28;20045;-70
2021/11/20 00:08:59;;;;;;;32.42;17.80;;;8.80;99.90;;;;;;5028509;28;20044;-70
2021/11/20 00:12:15;;;;;;;43.25;21.60;;;8.80;99.90;;;;;;5030704;28;20048;-70
2021/11/20 00:15:25;;;;;;;40.53;21.98;;;8.80;99.90;;;;;;5031478;28;20048;-70
2021/11/20 00:18:31;;;;;;;38.30;21.52;;;8.80;99.90;;;;;;5028945;28;20040;-70
2021/11/20 00:21:40;;;;;;;33.40;19.55;;;8.80;99.90;;;;;;5030197;28;20048;-70
2021/11/20 00:24:51;;;;;;;33.83;18.08;;;8.80;99.90;;;;;;5031264;28;20388;-70
2021/11/20 00:27:58;;;;;;;34.63;20.20;;;8.70;99.90;;;;;;5031403;28;20041;-70
2021/11/20 00:31:06;;;;;;;33.47;20.67;;;8.70;99.90;;;;;;5029526;28;20048;-70
2021/11/20 00:34:13;;;;;;;33.38;20.55;;;8.50;99.90;;;;;;5030294;28;20060;-70
2021/11/20 00:37:18;;;;;;;46.08;22.52;;;8.50;99.90;;;;;;5031415;28;20044;-70
2021/11/20 00:40:46;;;;;;;44.38;23.17;;;8.50;99.90;;;;;;5040511;28;20060;-70
2021/11/20 00:43:53;;;;;;;44.97;23.60;;;8.40;99.90;;;;;;5029786;28;20514;-70
2021/11/20 00:46:57;;;;;;;54.65;27.23;;;8.40;99.90;;;;;;5041020;28;20052;-70
2021/11/20 00:50:07;;;;;;;44.85;23.25;;;8.30;99.90;;;;;;5029932;28;20048;-70
2021/11/20 00:53:12;;;;;;;32.63;19.45;;;8.30;99.90;;;;;;5029513;28;20395;-70
2021/11/20 00:56:18;;;;;;;26.85;16.13;;;8.30;99.90;;;;;;5030049;28;20064;-70
2021/11/20 00:59:24;;;;;;;20.40;9.73;;;8.40;99.90;;;;;;5010697;28;20045;-70
2021/11/20 01:02:28;;;;;;;44.28;22.27;;;8.40;99.90;;;;;;5025478;28;20052;-70
2021/11/20 01:05:32;;;;;;;30.05;16.48;;;8.50;99.90;;;;;;5028482;28;20056;-70
2021/11/20 01:08:44;;;;;;;32.13;19.02;;;8.40;99.90;;;;;;5020632;28;20048;-70
2021/11/20 01:12:06;;;;;;;47.17;25.90;;;8.30;99.90;;;;;;5038135;28;20052;-70
2021/11/20 01:15:15;;;;;;;103.22;25.20;;;8.10;99.90;;;;;;5028382;28;20408;-70
2021/11/20 01:18:22;;;;;;;168.65;28.70;;;7.80;99.90;;;;;;5029640;28;20044;-70
2021/11/20 01:21:27;;;;;;;39.05;20.83;;;7.70;99.90;;;;;;5040262;28;20048;-70
2021/11/20 01:24:32;;;;;;;379.58;34.97;;;7.50;99.90;;;;;;5039775;28;20052;-70
2021/11/20 01:27:37;;;;;;;30.92;16.58;;;7.40;99.90;;;;;;5040097;28;20593;-70
2021/11/20 01:31:05;;;;;;;177.07;23.48;;;7.30;99.90;;;;;;5030209;28;20045;-70
2021/11/20 01:34:16;;;;;;;169.65;24.95;;;7.20;99.90;;;;;;5029325;28;20052;-70
2021/11/20 01:37:24;;;;;;;68.15;21.73;;;7.10;99.90;;;;;;5028281;28;20045;-70
2021/11/20 01:40:36;;;;;;;44.45;20.67;;;7.20;99.90;;;;;;5029667;28;20045;-71
2021/11/20 01:43:40;;;;;;;40.33;19.77;;;7.20;99.90;;;;;;5037983;28;20048;-70
2021/11/20 01:47:02;;;;;;;33.20;19.65;;;7.20;99.90;;;;;;5029436;28;20045;-70
2021/11/20 01:50:21;;;;;;;35.95;20.35;;;7.30;99.90;;;;;;5028813;28;20048;-70
2021/11/20 01:53:42;;;;;;;44.92;22.08;;;7.20;99.90;;;;;;5020674;28;20068;-70
2021/11/20 01:56:59;;;;;;;38.03;20.95;;;7.20;99.90;;;;;;5031545;28;20555;-70
2021/11/20 02:00:06;;;;;;;34.10;20.08;;;7.20;99.90;;;;;;5019094;28;20032;-70
2021/11/20 02:03:37;;;;;;;41.97;21.80;;;7.20;99.90;;;;;;5029441;28;20036;-70
2021/11/20 02:07:47;;;;;;;40.03;20.08;;;7.30;99.90;;;;;;5020548;28;20045;-70
2021/11/20 02:10:56;;;;;;;39.90;20.83;;;7.30;99.90;;;;;;5007822;28;20056;-70
2021/11/20 02:14:01;;;;;;;45.83;24.08;;;7.40;99.90;;;;;;5034089;28;20048;-70
2021/11/20 02:17:12;;;;;;;39.83;22.75;;;7.50;99.90;;;;;;5042592;28;20044;-70
2021/11/20 02:20:23;;;;;;;;;;;7.60;99.90;;;;;;5012765;28;20057;-70
2021/11/20 02:23:27;;;;;;;44.95;23.50;;;7.70;99.90;;;;;;5040543;28;19916;-70
2021/11/20 02:26:32;;;;;;;38.78;21.33;;;7.70;99.90;;;;;;5043450;28;20055;-70
2021/11/20 02:29:46;;;;;;;43.67;22.17;;;7.60;99.90;;;;;;5043820;28;20499;-70
2021/11/20 02:33:21;;;;;;;34.85;20.70;;;7.60;99.90;;;;;;5032179;28;20056;-70
2021/11/20 02:36:31;;;;;;;35.65;19.40;;;7.60;99.90;;;;;;5031180;28;20041;-70
2021/11/20 02:39:36;;;;;;;31.08;16.95;;;7.50;99.90;;;;;;5042929;28;20049;-70
2021/11/20 02:42:40;;;;;;;25.15;15.43;;;7.40;99.90;;;;;;5023923;28;20053;-70
2021/11/20 02:46:11;;;;;;;26.27;15.13;;;7.40;99.90;;;;;;5031814;28;20053;-70
2021/11/20 02:49:17;;;;;;;25.42;14.05;;;7.40;99.90;;;;;;5042405;28;20049;-70
2021/11/20 02:52:47;;;;;;;26.58;14.18;;;7.40;99.90;;;;;;5032621;28;20049;-70
2021/11/20 02:55:52;;;;;;;30.38;15.95;;;7.40;99.90;;;;;;5012099;28;20495;-71
2021/11/20 02:58:59;;;;;;;30.52;16.02;;;7.40;99.90;;;;;;5026599;28;20518;-71
2021/11/20 03:02:11;;;;;;;26.35;15.02;;;7.40;99.90;;;;;;5031021;28;20037;-70
2021/11/20 03:05:16;;;;;;;24.98;12.88;;;7.40;99.90;;;;;;5032614;28;20056;-70
2021/11/20 03:08:21;;;;;;;24.98;13.35;;;7.40;99.90;;;;;;5041725;28;20064;-70
2021/11/20 03:11:26;;;;;;;24.42;13.27;;;7.30;99.90;;;;;;5030867;28;20123;-70
2021/11/20 03:14:32;;;;;;;22.33;10.80;;;7.30;99.90;;;;;;5042860;28;20057;-70
2021/11/20 03:17:37;;;;;;;18.15;9.82;;;7.30;99.90;;;;;;5039971;28;20487;-70
2021/11/20 03:20:45;;;;;;;19.45;10.88;;;7.30;99.90;;;;;;5042279;28;20040;-70
2021/11/20 03:23:51;;;;;;;23.08;11.68;;;7.40;99.90;;;;;;5043130;28;20052;-70
2021/11/20 03:26:57;;;;;;;25.25;12.30;;;7.50;99.90;;;;;;5022226;28;20057;-70
2021/11/20 03:30:06;;;;;;;22.75;10.90;;;7.50;99.90;;;;;;5028388;28;20052;-71
2021/11/20 03:33:14;;;;;;;19.02;11.25;;;7.60;99.90;;;;;;5031193;28;20511;-70
2021/11/20 03:36:20;;;;;;;26.52;13.15;;;7.50;99.90;;;;;;5023036;28;20037;-70
2021/11/20 03:39:25;;;;;;;39.40;15.85;;;6.90;99.90;;;;;;5038601;28;20049;-70
2021/11/20 03:42:31;;;;;;;69.88;16.90;;;6.60;99.90;;;;;;5030121;28;20044;-70
2021/11/20 03:45:35;;;;;;;289.92;23.02;;;6.40;99.90;;;;;;5031097;28;20491;-70
2021/11/20 03:48:40;;;;;;;65.20;11.32;;;6.30;99.90;;;;;;5041123;28;20041;-70
2021/11/20 03:51:44;;;;;;;144.48;12.40;;;6.10;99.90;;;;;;5030237;28;20053;-70
2021/11/20 03:54:49;;;;;;;36.20;8.35;;;5.90;99.90;;;;;;5031053;28;20036;-70
2021/11/20 03:57:56;;;;;;;10.20;6.80;;;5.60;99.90;;;;;;5030340;28;20044;-70
2021/11/20 04:01:07;;;;;;;171.65;13.13;;;5.40;99.90;;;;;;5030871;28;20048;-70
2021/11/20 04:04:11;;;;;;;132.48;15.15;;;5.20;99.90;;;;;;5042110;28;20048;-70
2021/11/20 04:07:18;;;;;;;90.95;10.70;;;5.00;99.90;;;;;;5022212;28;20496;-70
2021/11/20 04:10:29;;;;;;;13.57;7.60;;;5.00;99.90;;;;;;5025168;28;20040;-70
2021/11/20 04:13:36;;;;;;;65.97;10.10;;;4.90;99.90;;;;;;5041623;28;20052;-70
2021/11/20 04:16:41;;;;;;;15.70;8.38;;;5.00;99.90;;;;;;5022218;28;20045;-70
2021/11/20 04:19:47;;;;;;;37.30;8.60;;;5.00;99.90;;;;;;5037602;28;20044;-70
2021/11/20 04:22:52;;;;;;;82.45;8.30;;;4.90;99.90;;;;;;5030380;28;20388;-70
2021/11/20 04:25:58;;;;;;;19.38;7.20;;;4.90;99.90;;;;;;5030302;28;20258;-71
2021/11/20 04:29:03;;;;;;;40.33;8.25;;;5.00;99.90;;;;;;5040589;28;20048;-70
2021/11/20 04:32:08;;;;;;;13.38;6.95;;;5.00;99.90;;;;;;5029271;28;20065;-70
2021/11/20 04:35:14;;;;;;;9.52;6.45;;;4.90;99.90;;;;;;5030159;28;20048;-70
2021/11/20 04:38:20;;;;;;;16.40;7.07;;;4.80;99.90;;;;;;5028472;28;20049;-70
2021/11/20 04:41:25;;;;;;;21.13;7.60;;;4.70;99.90;;;;;;5040916;28;20044;-70
2021/11/20 04:44:29;;;;;;;13.38;6.47;;;4.70;99.90;;;;;;5029835;28;20045;-70
2021/11/20 04:47:33;;;;;;;9.55;6.93;;;4.60;99.90;;;;;;5011073;28;20057;-70
2021/11/20 04:50:38;;;;;;;19.30;7.97;;;4.70;99.90;;;;;;5033615;28;20046;-70
2021/11/20 04:53:45;;;;;;;24.08;9.05;;;4.70;99.90;;;;;;5029364;28;20052;-70
2021/11/20 04:56:50;;;;;;;10.23;7.30;;;4.80;99.90;;;;;;5010150;28;20380;-71
2021/11/20 04:59:54;;;;;;;20.20;7.53;;;4.80;99.90;;;;;;5035461;28;20048;-70
2021/11/20 05:03:07;;;;;;;27.20;8.82;;;4.80;99.90;;;;;;5029230;28;20051;-70
2021/11/20 05:06:17;;;;;;;36.28;7.75;;;4.80;99.90;;;;;;5010251;28;20384;-70
2021/11/20 05:09:21;;;;;;;43.35;8.85;;;4.80;99.90;;;;;;5039064;28;20507;-70
2021/11/20 05:12:30;;;;;;;47.90;8.77;;;4.80;99.90;;;;;;5040129;28;20056;-70
2021/11/20 05:15:48;;;;;;;88.55;9.75;;;4.80;99.90;;;;;;5041012;28;20045;-70
2021/11/20 05:18:53;;;;;;;39.65;8.38;;;4.90;99.90;;;;;;5039876;28;20048;-70
2021/11/20 05:22:05;;;;;;;9.10;6.10;;;4.90;99.90;;;;;;5039848;28;20052;-70
2021/11/20 05:25:13;;;;;;;80.18;11.40;;;4.90;99.90;;;;;;5040703;28;20045;-70
2021/11/20 05:28:19;;;;;;;46.85;9.90;;;4.70;99.90;;;;;;5020352;28;20496;-71
2021/11/20 05:31:24;;;;;;;56.28;8.60;;;4.50;99.90;;;;;;5033435;28;20587;-70
2021/11/20 05:34:30;;;;;;;19.70;7.63;;;4.50;99.90;;;;;;5028496;28;20048;-70
2021/11/20 05:37:35;;;;;;;69.22;9.40;;;4.50;99.90;;;;;;5030086;28;20041;-70
2021/11/20 05:40:39;;;;;;;14.65;6.53;;;4.50;99.90;;;;;;5039607;28;20052;-70
2021/11/20 05:43:45;;;;;;;39.28;8.52;;;4.40;99.90;;;;;;5028406;28;20495;-70
2021/11/20 05:47:03;;;;;;;18.83;6.45;;;4.30;99.90;;;;;;5029075;28;20526;-70
2021/11/20 05:50:12;;;;;;;61.70;7.63;;;4.40;99.90;;;;;;5029468;28;20511;-70
2021/11/20 05:53:22;;;;;;;54.53;8.63;;;4.30;99.90;;;;;;5044174;28;20327;-70
2021/11/20 05:56:26;;;;;;;18.20;6.90;;;4.30;99.90;;;;;;5044005;28;20550;-70
2021/11/20 05:59:31;;;;;;;9.80;6.68;;;4.20;99.90;;;;;;5013990;28;20053;-71
2021/11/20 06:02:37;;;;;;;21.75;7.38;;;4.10;99.90;;;;;;5038996;28;20034;-70
2021/11/20 06:05:42;;;;;;;9.07;7.00;;;4.10;99.90;;;;;;5033283;28;20396;-70
2021/11/20 06:08:46;;;;;;;22.00;8.85;;;4.00;99.90;;;;;;5024308;28;20488;-70
2021/11/20 06:11:50;;;;;;;11.02;7.13;;;4.00;99.90;;;;;;5032772;28;20037;-70
2021/11/20 06:14:54;;;;;;;14.32;8.38;;;4.00;99.90;;;;;;5029222;28;20048;-70
2021/11/20 06:17:59;;;;;;;11.55;7.10;;;4.00;99.90;;;;;;5032796;28;20049;-70
2021/11/20 06:21:04;;;;;;;13.65;8.15;;;4.00;99.90;;;;;;5043571;28;20080;-70
2021/11/20 06:24:09;;;;;;;44.00;10.48;;;4.00;99.90;;;;;;5031913;28;20407;-70
2021/11/20 06:27:14;;;;;;;31.38;8.07;;;3.90;99.90;;;;;;5032527;28;20056;-70
2021/11/20 06:30:22;;;;;;;89.45;11.20;;;4.00;99.90;;;;;;5039022;28;20056;-70
2021/11/20 06:33:29;;;;;;;45.03;8.27;;;4.10;99.90;;;;;;5043108;28;20041;-70
2021/11/20 06:36:43;;;;;;;296.90;21.10;;;4.10;99.90;;;;;;5044190;28;20052;-70
2021/11/20 06:39:58;;;;;;;145.48;13.48;;;4.10;99.90;;;;;;5023392;28;20041;-70
2021/11/20 06:43:04;;;;;;;135.48;13.77;;;4.20;99.90;;;;;;5028836;28;20052;-70
2021/11/20 06:46:11;;;;;;;7.32;6.05;;;4.30;99.90;;;;;;5043463;28;20076;-70
2021/11/20 06:49:16;;;;;;;13.38;6.30;;;4.30;99.90;;;;;;5032245;28;20037;-70
2021/11/20 06:52:25;;;;;;;85.38;8.75;;;4.50;99.90;;;;;;5031679;28;20530;-70
2021/11/20 06:56:14;;;;;;;39.35;7.53;;;4.70;99.90;;;;;;5040527;28;20396;-70
2021/11/20 07:03:06;;;;;;;20.60;5.82;;;5.80;99.90;;;;;;5030967;28;20052;-70
2021/11/20 07:06:37;;;;;;;57.25;6.32;;;6.30;99.90;;;;;;5041085;28;20044;-70
2021/11/20 07:09:41;;;;;;;16.38;4.72;;;7.60;99.90;;;;;;5030501;28;20057;-70
2021/11/20 07:12:46;;;;;;;5.25;3.92;;;9.60;99.90;;;;;;5042753;28;20060;-70
2021/11/20 07:15:51;;;;;;;4.80;3.67;;;12.00;99.90;;;;;;5023094;28;20046;-71
2021/11/20 07:18:56;;;;;;;4.53;3.80;;;14.70;99.90;;;;;;5030275;28;20041;-71
2021/11/20 07:22:39;;;;;;;4.07;3.10;;;16.80;99.90;;;;;;5009134;28;20041;-71
2021/11/20 07:25:50;;;;;;;3.97;3.50;;;19.30;99.90;;;;;;4999197;28;20049;-71
2021/11/20 07:28:57;;;;;;;6.72;2.92;;;20.10;96.70;;;;;;5022657;28;20057;-71
2021/11/20 07:32:04;;;;;;;17.63;4.57;;;19.60;96.50;;;;;;5036351;28;20045;-71
2021/11/20 07:35:09;;;;;;;56.85;5.10;;;18.50;97.00;;;;;;5030935;28;20048;-71
2021/11/20 07:38:19;;;;;;;14.57;3.50;;;17.00;99.00;;;;;;5042782;28;20048;-71
2021/11/20 07:41:27;;;;;;;9.18;3.90;;;16.30;99.90;;;;;;5030390;28;20495;-71
2021/11/20 07:44:39;;;;;;;6.20;3.58;;;16.10;99.90;;;;;;5042150;28;20056;-71
2021/11/20 07:47:45;;;;;;;6.90;3.33;;;16.80;99.90;;;;;;5031133;28;20040;-71
2021/11/20 07:50:51;;;;;;;5.30;3.20;;;17.90;98.40;;;;;;5030378;28;20407;-72
2021/11/20 07:54:21;;;;;;;75.72;5.70;;;17.80;98.10;;;;;;5030826;28;20052;-71
2021/11/20 07:57:45;;;;;;;42.47;5.22;;;17.50;98.00;;;;;;5030975;28;20041;-71
2021/11/20 08:00:50;;;;;;;53.13;5.38;;;17.80;98.70;;;;;;5031381;28;20048;-71
2021/11/20 08:03:54;;;;;;;34.42;4.82;;;18.80;97.80;;;;;;5030022;28;20396;-71
2021/11/20 08:07:18;;;;;;;5.05;3.78;;;18.90;97.10;;;;;;5030679;28;20411;-71
2021/11/20 08:10:49;;;;;;;14.98;4.68;;;19.70;97.00;;;;;;5030992;28;20057;-71
2021/11/20 08:13:54;;;;;;;6.03;3.65;;;21.30;94.40;;;;;;5010864;28;20220;-71
2021/11/20 08:17:03;;;;;;;4.25;3.45;;;22.20;94.30;;;;;;5026230;28;20044;-71
2021/11/20 08:20:31;;;;;;;12.65;3.95;;;23.90;92.40;;;;;;5028599;28;20040;-71
2021/11/20 08:23:43;;;;;;;9.43;4.28;;;23.80;91.10;;;;;;5029954;28;20121;-71
2021/11/20 08:26:47;;;;;;;9.98;4.22;;;23.40;90.60;;;;;;5030602;28;20048;-71
2021/11/20 08:29:51;;;;;;;37.00;5.38;;;22.70;90.90;;;;;;5022252;28;20048;-71
2021/11/20 08:32:57;;;;;;;53.42;6.47;;;22.40;90.20;;;;;;5030356;28;20502;-72
2021/11/20 08:36:25;;;;;;;27.52;6.05;;;20.90;92.20;;;;;;5041948;28;20484;-71
2021/11/20 08:39:48;;;;;;;6.68;4.72;;;20.50;94.10;;;;;;5034878;28;20041;-71
2021/11/20 08:42:53;;;;;;;5.20;4.70;;;22.40;93.00;;;;;;5030192;28;20097;-71
2021/11/20 08:46:00;;;;;;;6.88;5.15;;;25.10;90.10;;;;;;5029784;28;20045;-71
2021/11/20 08:49:05;;;;;;;7.47;5.80;;;27.00;87.20;;;;;;5027024;28;20035;-71
2021/11/20 08:52:12;;;;;;;8.02;7.00;;;27.50;83.70;;;;;;5029129;28;20048;-72
2021/11/20 08:55:17;;;;;;;7.80;7.00;;;27.50;82.40;;;;;;5029589;28;20048;-71
2021/11/20 08:58:22;;;;;;;25.75;9.65;;;28.50;81.00;;;;;;5028839;28;20052;-71
2021/11/20 09:01:32;;;;;;;18.15;7.60;;;26.80;80.40;;;;;;5029673;28;20056;-71
2021/11/20 09:04:49;;;;;;;35.50;5.32;;;24.80;83.70;;;;;;5030245;28;20061;-71
2021/11/20 09:08:18;;;;;;;19.52;5.53;;;23.80;86.00;;;;;;5009767;28;20057;-71
2021/11/20 09:11:44;;;;;;;44.22;5.80;;;22.70;88.40;;;;;;5037032;28;20048;-71
2021/11/20 09:15:02;;;;;;;39.13;5.82;;;21.10;89.90;;;;;;5040173;28;20044;-71
2021/11/20 09:18:15;;;;;;;103.07;7.60;;;19.20;92.70;;;;;;5028813;28;20399;-71
2021/11/20 09:21:20;;;;;;;65.28;6.22;;;17.00;95.60;;;;;;5040724;28;20520;-71
2021/11/20 09:24:38;;;;;;;15.52;5.85;;;15.70;99.00;;;;;;5040002;28;20052;-71
2021/11/20 09:28:09;;;;;;;45.85;7.60;;;16.20;99.90;;;;;;5028618;28;20044;-71
2021/11/20 09:31:15;;;;;;;43.25;6.15;;;16.70;99.80;;;;;;5030056;28;20526;-71
2021/11/20 09:34:21;;;;;;;36.08;6.68;;;16.70;99.70;;;;;;5040436;28;20041;-71
2021/11/20 09:37:28;;;;;;;39.72;6.30;;;16.90;99.90;;;;;;5028307;28;20045;-71
2021/11/20 09:40:58;;;;;;;7.82;5.20;;;17.30;99.40;;;;;;5029038;28;20047;-71
2021/11/20 09:44:07;;;;;;;6.07;5.47;;;18.30;98.40;;;;;;5029311;28;20037;-71
2021/11/20 09:47:22;;;;;;;37.72;6.20;;;19.60;96.90;;;;;;5025814;28;20048;-71
2021/11/20 09:50:32;;;;;;;7.80;6.07;;;20.70;94.50;;;;;;5039845;28;20052;-71
2021/11/20 09:53:39;;;;;;;;;;;21.40;94.20;;;;;;5040216;28;20072;-71
2021/11/20 09:56:54;;;;;;;56.20;29.15;;;20.20;95.20;;;;;;5029638;28;19909;-71
2021/11/20 10:00:27;;;;;;;42.38;27.48;;;19.10;96.20;;;;;;5029419;28;20057;-71
2021/11/20 10:03:39;;;;;;;71.38;37.97;;;19.90;96.50;;;;;;5016659;28;20060;-71
2021/11/20 10:06:46;;;;;;;72.25;39.25;;;20.60;95.40;;;;;;5029758;28;20052;-71
2021/11/20 10:09:53;;;;;;;41.58;27.13;;;21.20;94.50;;;;;;5028853;28;20052;-71
2021/11/20 10:13:03;;;;;;;45.03;28.95;;;22.80;93.50;;;;;;5028142;28;20041;-71
2021/11/20 10:16:18;;;;;;;46.92;28.02;;;23.30;92.80;;;;;;5029528;28;20048;-71
2021/11/20 10:19:35;;;;;;;61.15;25.88;;;23.30;91.90;;;;;;5029809;28;20061;-71
2021/11/20 10:23:17;;;;;;;31.45;20.05;;;21.50;92.50;;;;;;5029299;28;20120;-71
2021/11/20 10:26:43;;;;;;;51.05;19.55;;;20.10;94.80;;;;;;5015061;28;20046;-71
2021/11/20 10:30:15;;;;;;;43.75;16.38;;;19.50;96.10;;;;;;5029171;28;20717;-72
2021/11/20 10:33:35;;;;;;;22.13;14.50;;;22.00;94.10;;;;;;5009937;28;20037;-71
2021/11/20 10:36:53;;;;;;;17.98;13.85;;;22.90;92.80;;;;;;5026958;28;20044;-71
2021/11/20 10:40:02;;;;;;;21.10;13.88;;;22.20;92.60;;;;;;5031805;28;20032;-71
2021/11/20 10:43:14;;;;;;;19.63;14.27;;;22.20;93.40;;;;;;5032875;28;20044;-71
2021/11/20 10:46:22;;;;;;;17.23;12.43;;;22.20;93.10;;;;;;5013319;28;20041;-71
2021/11/20 10:49:44;;;;;;;13.98;11.15;;;23.20;92.90;;;;;;5028533;28;20064;-72
2021/11/20 10:53:09;;;;;;;11.98;10.05;;;25.70;91.90;;;;;;5031151;28;20044;-71
2021/11/20 10:56:33;;;;;;;10.20;9.10;;;29.20;88.40;;;;;;5033073;28;20069;-72
2021/11/20 10:59:50;;;;;;;13.38;7.60;;;31.40;83.10;;;;;;5012906;28;20044;-72
2021/11/20 11:03:16;;;;;;;8.30;7.50;;;32.10;80.00;;;;;;5029018;28;20036;-72
2021/11/20 11:06:42;;;;;;;9.45;8.02;;;31.50;77.30;;;;;;5032287;28;20488;-72
2021/11/20 11:09:48;;;;;;;9.30;7.68;;;31.30;77.10;;;;;;5032436;28;20048;-72
2021/11/20 11:13:00;;;;;;;8.13;7.32;;;31.70;77.20;;;;;;5012542;28;20045;-72
2021/11/20 11:16:25;;;;;;;7.85;7.05;;;31.60;76.30;;;;;;5026237;28;20048;-72
2021/11/20 11:19:44;;;;;;;8.35;6.45;;;31.90;76.30;;;;;;5031515;28;20037;-72
2021/11/20 11:22:57;;;;;;;9.70;6.07;;;33.50;75.30;;;;;;5031589;28;20053;-72
2021/11/20 11:26:08;;;;;;;6.05;5.53;;;34.50;73.70;;;;;;5040861;28;20052;-72
2021/11/20 11:29:40;;;;;;;8.50;7.65;;;34.90;72.10;;;;;;5031475;28;20044;-72
2021/11/20 11:32:45;;;;;;;9.07;8.05;;;32.00;72.20;;;;;;5032259;28;20508;-72
2021/11/20 11:36:21;;;;;;;9.23;6.43;;;29.80;76.20;;;;;;5031414;28;20048;-72
2021/11/20 11:39:35;;;;;;;7.28;6.15;;;31.70;74.90;;;;;;5029567;28;20048;-72
2021/11/20 11:43:01;;;;;;;7.05;6.30;;;33.50;73.30;;;;;;5031220;28;20064;-72
2021/11/20 11:46:45;;;;;;;7.68;6.22;;;35.10;71.70;;;;;;5031654;28;20716;-72
2021/11/20 11:50:19;;;;;;;7.57;6.10;;;35.90;69.50;;;;;;5031491;28;20044;-72
2021/11/20 11:53:48;;;;;;;6.68;5.97;;;36.20;69.80;;;;;;5012056;28;20384;-72
2021/11/20 11:56:58;;;;;;;6.80;5.95;;;36.40;68.70;;;;;;5028860;28;20121;-72
2021/11/20 12:00:33;;;;;;;6.80;6.07;;;36.60;68.10;;;;;;5030836;28;20057;-72
2021/11/20 12:03:44;;;;;;;9.35;6.60;;;36.30;67.70;;;;;;5022918;28;20040;-72
2021/11/20 12:06:49;;;;;;;;;;;36.30;67.30;;;;;;5012272;28;20049;-72
2021/11/20 12:10:10;;;;;;;7.32;6.28;;;35.80;67.70;;;;;;5025199;28;19935;-72
2021/11/20 12:13:34;;;;;;;9.95;6.35;;;35.60;68.10;;;;;;5030966;28;20052;-72
2021/11/20 12:16:48;;;;;;;8.82;6.97;;;35.80;66.90;;;;;;5031780;28;20045;-72
2021/11/20 12:20:13;;;;;;;8.13;5.70;;;35.50;67.40;;;;;;5029196;28;20049;-72
2021/11/20 12:23:48;;;;;;;6.55;5.95;;;35.70;67.60;;;;;;5030549;28;20507;-72
2021/11/20 12:27:02;;;;;;;6.72;5.88;;;35.70;66.90;;;;;;5030018;28;20049;-72
2021/11/20 12:30:10;;;;;;;9.27;6.82;;;35.80;66.50;;;;;;5030906;28;20044;-72
2021/11/20 12:33:21;;;;;;;7.00;6.00;;;35.60;66.40;;;;;;5030641;28;20049;-72
2021/11/20 12:36:49;;;;;;;7.53;5.57;;;35.20;66.70;;;;;;5030548;28;20044;-72
2021/11/20 12:40:18;;;;;;;8.70;5.95;;;35.40;65.70;;;;;;5030666;28;20060;-72
2021/11/20 12:44:02;;;;;;;7.28;6.57;;;35.70;66.20;;;;;;5011340;28;20045;-72
2021/11/20 12:47:39;;;;;;;7.97;5.47;;;35.40;66.20;;;;;;5030575;28;20060;-72
2021/11/20 12:51:06;;;;;;;8.57;5.95;;;35.10;66.00;;;;;;5029987;28;20045;-72
2021/11/20 12:54:48;;;;;;;8.25;6.00;;;34.70;66.80;;;;;;5029769;28;20045;-72
2021/11/20 12:57:55;;;;;;;9.32;6.10;;;35.30;66.00;;;;;;5030501;28;20392;-72
2021/11/20 13:00:59;;;;;;;9.13;6.38;;;35.00;65.90;;;;;;5010322;28;20053;-72
2021/11/20 13:04:18;;;;;;;6.85;5.60;;;34.40;66.00;;;;;;5028069;28;20056;-71
2021/11/20 13:07:28;;;;;;;9.38;6.25;;;33.70;66.60;;;;;;5029099;28;20048;-72
2021/11/20 13:11:10;;;;;;;8.70;6.15;;;33.50;67.60;;;;;;5030495;28;20040;-72
2021/11/20 13:14:41;;;;;;;6.15;5.55;;;32.90;67.70;;;;;;5010491;28;20041;-72
2021/11/20 13:17:59;;;;;;;13.68;5.47;;;33.10;67.50;;;;;;5029508;28;20053;-72
2021/11/20 13:21:07;;;;;;;8.30;6.20;;;33.00;67.90;;;;;;5029295;28;20499;-72
2021/11/20 13:24:23;;;;;;;6.57;5.80;;;32.10;67.70;;;;;;5030484;28;20049;-71
2021/11/20 13:28:03;;;;;;;8.02;6.35;;;31.90;68.30;;;;;;5010725;28;20045;-72
2021/11/20 13:31:10;;;;;;;9.20;6.97;;;32.30;68.70;;;;;;5028925;28;20044;-71
2021/11/20 13:34:14;;;;;;;7.45;6.20;;;32.50;68.60;;;;;;5029758;28;20045;-72
2021/11/20 13:37:18;;;;;;;8.32;6.60;;;32.30;68.70;;;;;;5029941;28;20044;-72
2021/11/20 13:40:27;;;;;;;8.20;6.03;;;32.30;68.10;;;;;;5027548;28;20052;-71
2021/11/20 13:43:38;;;;;;;8.60;5.85;;;32.00;68.30;;;;;;5029419;28;20044;-72
2021/11/20 13:46:42;;;;;;;11.00;7.18;;;31.30;69.20;;;;;;5030023;28;20049;-72
2021/11/20 13:49:55;;;;;;;9.43;6.97;;;31.00;69.90;;;;;;5029979;28;20044;-72
2021/11/20 13:53:00;;;;;;;7.13;5.72;;;30.70;70.40;;;;;;5029445;28;20040;-71
2021/11/20 13:56:06;;;;;;;8.95;6.07;;;30.70;70.70;;;;;;5029634;28;20494;-72
2021/11/20 13:59:14;;;;;;;7.05;5.50;;;30.90;70.20;;;;;;5030050;28;20052;-72
2021/11/20 14:02:20;;;;;;;11.05;7.13;;;30.60;70.50;;;;;;5029215;28;20064;-72
2021/11/20 14:05:26;;;;;;;9.70;6.72;;;30.40;70.90;;;;;;5028867;28;20052;-72
2021/11/20 14:08:41;;;;;;;7.97;6.50;;;29.60;72.30;;;;;;5029615;28;20523;-72
2021/11/20 14:12:04;;;;;;;8.35;6.68;;;29.60;72.30;;;;;;5029400;28;20040;-71
2021/11/20 14:15:10;;;;;;;14.88;11.88;;;29.30;73.30;;;;;;5032737;28;20040;-72
2021/11/20 14:18:16;;;;;;;9.40;7.20;;;29.00;73.50;;;;;;5033253;28;20642;-71
2021/11/20 14:21:26;;;;;;;8.45;7.20;;;28.50;73.70;;;;;;5013716;28;20053;-71
2021/11/20 14:24:32;;;;;;;12.95;10.07;;;28.40;74.50;;;;;;5031821;28;20045;-71
2021/11/20 14:27:36;;;;;;;11.20;8.27;;;28.30;74.80;;;;;;5032870;28;20040;-71
2021/11/20 14:30:46;;;;;;;10.20;7.47;;;28.10;75.30;;;;;;5033056;28;20045;-71
2021/11/20 14:33:59;;;;;;;9.80;6.75;;;28.10;75.10;;;;;;5032313;28;20057;-71
2021/11/20 14:37:20;;;;;;;7.35;6.10;;;27.90;75.10;;;;;;5032303;28;20431;-71
2021/11/20 14:40:24;;;;;;;8.60;6.70;;;27.30;75.70;;;;;;5032851;28;20040;-71
2021/11/20 14:43:31;;;;;;;10.75;7.50;;;26.90;76.70;;;;;;5023859;28;20044;-71
2021/11/20 14:46:36;;;;;;;10.25;7.40;;;26.60;77.60;;;;;;5025960;28;20044;-71
2021/11/20 14:49:42;;;;;;;10.23;7.38;;;26.30;78.00;;;;;;5032392;28;20039;-71
2021/11/20 14:52:47;;;;;;;9.65;7.47;;;25.90;78.50;;;;;;5013355;28;20507;-71
2021/11/20 14:56:14;;;;;;;9.77;7.68;;;25.50;79.10;;;;;;5028350;28;20439;-71
2021/11/20 14:59:18;;;;;;;11.00;7.97;;;25.00;80.00;;;;;;5031698;28;20048;-71
2021/11/20 15:02:23;;;;;;;11.13;8.60;;;24.20;81.80;;;;;;5032922;28;20310;-71
2021/11/20 15:05:27;;;;;;;11.98;8.25;;;23.70;82.80;;;;;;5029296;28;20057;-71
2021/11/20 15:08:32;;;;;;;10.82;7.95;;;23.20;84.60;;;;;;5041997;28;20499;-71
2021/11/20 15:11:37;;;;;;;11.40;8.35;;;23.00;85.30;;;;;;5032509;28;20040;-71
2021/11/20 15:14:42;;;;;;;11.73;8.98;;;22.70;86.50;;;;;;5031732;28;20036;-71
2021/11/20 15:17:47;;;;;;;11.65;8.98;;;22.30;86.60;;;;;;5031617;28;20053;-71
2021/11/20 15:20:51;;;;;;;15.13;9.25;;;21.70;88.60;;;;;;5032063;28;20498;-71
2021/11/20 15:23:54;;;;;;;12.73;9.30;;;21.20;90.00;;;;;;5031710;28;20388;-71
2021/11/20 15:27:01;;;;;;;15.73;9.55;;;20.70;90.70;;;;;;5031530;28;20408;-71
2021/11/20 15:30:08;;;;;;;14.75;9.40;;;20.20;91.60;;;;;;5031850;28;20048;-71
2021/11/20 15:33:13;;;;;;;14.77;11.00;;;19.40;92.80;;;;;;5012680;28;20053;-71
2021/11/20 15:36:17;;;;;;;14.05;9.40;;;18.70;94.20;;;;;;5028529;28;20044;-71
2021/11/20 15:39:21;;;;;;;15.40;10.75;;;17.80;96.10;;;;;;5030502;28;20049;-71
2021/11/20 15:42:25;;;;;;;16.30;11.23;;;17.00;98.10;;;;;;5032239;28;20060;-71
2021/11/20 15:45:29;;;;;;;15.57;10.85;;;16.40;99.90;;;;;;5031222;28;20053;-71
2021/11/20 15:48:34;;;;;;;19.13;11.40;;;15.80;99.90;;;;;;5031056;28;20408;-71
2021/11/20 15:51:38;;;;;;;20.20;11.32;;;15.40;99.90;;;;;;5031166;28;20053;-71
2021/11/20 15:54:42;;;;;;;18.63;12.35;;;15.00;99.90;;;;;;5028672;28;20048;-70
2021/11/20 15:57:46;;;;;;;20.92;12.45;;;14.80;99.90;;;;;;5030723;28;20407;-71
2021/11/20 16:00:50;;;;;;;25.83;15.57;;;14.50;99.90;;;;;;5032092;28;20211;-70
2021/11/20 16:03:54;;;;;;;36.40;20.02;;;14.20;99.90;;;;;;5030330;28;20056;-70
2021/11/20 16:06:58;;;;;;;41.15;24.73;;;14.00;99.90;;;;;;5030836;28;20057;-71
2021/11/20 16:10:03;;;;;;;26.88;17.30;;;13.80;99.90;;;;;;5031021;28;20056;-70
2021/11/20 16:13:08;;;;;;;21.90;14.40;;;13.60;99.90;;;;;;5012012;28;20048;-70
2021/11/20 16:16:12;;;;;;;19.25;13.07;;;13.50;99.90;;;;;;5024369;28;20056;-71
2021/11/20 16:19:16;;;;;;;21.50;13.23;;;13.40;99.90;;;;;;5030955;28;20486;-71
2021/11/20 16:22:20;;;;;;;27.85;15.20;;;13.20;99.90;;;;;;5031259;28;20502;-71
2021/11/20 16:25:24;;;;;;;21.20;13.35;;;13.10;99.90;;;;;;5041195;28;20048;-71
2021/11/20 16:28:29;;;;;;;25.67;16.58;;;13.10;99.90;;;;;;5030299;28;20048;-71
2021/11/20 16:31:34;;;;;;;31.58;20.73;;;13.00;99.90;;;;;;5011599;28;20172;-71
2021/11/20 16:34:39;;;;;;;27.17;17.88;;;12.90;99.90;;;;;;5027465;28;20053;-70